Time;durP1;ratioP1;P1;durP2;ratioP2;P2;SDS_P1;SDS_P2;PMS_P1;PMS_P2;Temp;Humidity;BMP_temperature;BMP_pressure;BME280_temperature;BME280_humidity;BME280_pressure;Samples;Min_cycle;Max_cycle;Signal;HPM_P1;HPM_P2
2022/03/23 00:00:10;;;;;;;22.42;9.60;;;0.90;99.90;;;;;;5095545;28;20024;-62
2022/03/23 00:02:36;;;;;;;16.90;8.93;;;0.00;99.90;;;;;;5095600;28;20031;-62
2022/03/23 00:05:01;;;;;;;16.65;9.25;;;0.10;99.90;;;;;;5095569;28;20022;-62
2022/03/23 00:07:28;;;;;;;20.48;8.63;;;0.00;99.90;;;;;;5095387;28;20028;-62
2022/03/23 00:09:54;;;;;;;21.15;8.90;;;0.00;99.90;;;;;;5095327;28;20055;-62
2022/03/23 00:12:19;;;;;;;18.48;8.55;;;0.00;99.90;;;;;;5095091;28;20472;-62
2022/03/23 00:14:45;;;;;;;19.30;8.23;;;0.00;99.90;;;;;;5093965;28;20460;-62
2022/03/23 00:17:10;;;;;;;20.60;8.27;;;2.00;99.90;;;;;;5093894;28;20029;-62
2022/03/23 00:19:36;;;;;;;19.08;8.23;;;-0.10;99.90;;;;;;5095142;28;20028;-62
2022/03/23 00:22:02;;;;;;;19.77;9.13;;;1.20;99.90;;;;;;5095346;28;20539;-62
2022/03/23 00:24:28;;;;;;;18.98;8.30;;;-0.20;99.90;;;;;;5093468;28;20024;-62
2022/03/23 00:26:53;;;;;;;14.43;7.88;;;0.50;99.90;;;;;;5094968;28;20028;-62
2022/03/23 00:29:19;;;;;;;25.45;8.60;;;-0.20;99.90;;;;;;5094933;28;20031;-62
2022/03/23 00:31:45;;;;;;;17.88;8.18;;;-0.20;99.90;;;;;;5093585;28;20028;-62
2022/03/23 00:34:10;;;;;;;19.83;7.93;;;-0.30;99.90;;;;;;5094865;28;20028;-62
2022/03/23 00:36:36;;;;;;;20.08;8.07;;;-0.20;99.90;;;;;;5093805;28;20036;-62
2022/03/23 00:39:02;;;;;;;18.13;7.72;;;-0.30;99.90;;;;;;5093520;28;20024;-62
2022/03/23 00:41:28;;;;;;;13.77;7.43;;;1.60;99.90;;;;;;5094528;28;20396;-62
2022/03/23 00:43:53;;;;;;;21.20;9.15;;;-0.40;99.90;;;;;;5094706;28;20028;-63
2022/03/23 00:46:19;;;;;;;18.33;8.15;;;-0.40;99.90;;;;;;5093416;28;20371;-62
2022/03/23 00:48:45;;;;;;;13.43;7.00;;;-0.30;99.90;;;;;;5093763;28;20035;-62
2022/03/23 00:51:11;;;;;;;18.50;7.45;;;-0.10;99.90;;;;;;5093734;28;20032;-63
2022/03/23 00:53:37;;;;;;;16.92;6.72;;;-0.40;99.90;;;;;;5095570;28;20078;-62
2022/03/23 00:56:04;;;;;;;16.27;7.65;;;-0.50;99.90;;;;;;5095510;28;20028;-62
2022/03/23 00:58:30;;;;;;;14.30;7.38;;;-0.50;99.90;;;;;;5095427;28;20035;-62
2022/03/23 01:00:55;;;;;;;13.48;7.18;;;2.10;99.90;;;;;;5095232;28;20032;-62
2022/03/23 01:03:21;;;;;;;19.45;7.55;;;1.10;99.90;;;;;;5096948;28;20107;-62
2022/03/23 01:05:47;;;;;;;16.85;7.35;;;-0.50;99.90;;;;;;5094724;28;20027;-62
2022/03/23 01:08:13;;;;;;;13.90;7.03;;;1.60;99.90;;;;;;5094758;28;20384;-62
2022/03/23 01:10:39;;;;;;;14.02;6.75;;;-0.50;99.90;;;;;;5094800;28;20036;-62
2022/03/23 01:13:06;;;;;;;16.50;7.68;;;-0.60;99.90;;;;;;5096203;28;20113;-62
2022/03/23 01:15:33;;;;;;;18.70;6.93;;;-0.50;99.90;;;;;;5094793;28;20032;-62
2022/03/23 01:17:58;;;;;;;15.88;7.50;;;-0.60;99.90;;;;;;5092832;28;20028;-62
2022/03/23 01:20:24;;;;;;;19.85;7.85;;;0.60;99.90;;;;;;5092544;28;20073;-62
2022/03/23 01:22:50;;;;;;;13.90;7.65;;;1.80;99.90;;;;;;5093778;28;20024;-62
2022/03/23 01:25:18;;;;;;;16.75;6.88;;;1.20;99.90;;;;;;5094145;28;20028;-62
2022/03/23 01:27:45;;;;;;;15.90;6.97;;;0.20;99.90;;;;;;5094083;28;20047;-62
2022/03/23 01:30:12;;;;;;;16.83;7.20;;;-0.70;99.90;;;;;;5093667;28;20056;-62
2022/03/23 01:32:39;;;;;;;15.02;6.53;;;-0.70;99.90;;;;;;5093970;28;20035;-62
2022/03/23 01:35:07;;;;;;;19.05;8.07;;;0.30;99.90;;;;;;5093932;28;20077;-62
2022/03/23 01:37:33;;;;;;;17.38;6.80;;;-0.80;99.90;;;;;;5094056;28;20024;-62
2022/03/23 01:39:59;;;;;;;13.27;6.78;;;1.50;99.90;;;;;;5093139;28;20024;-62
2022/03/23 01:42:27;;;;;;;12.38;6.13;;;-0.80;99.90;;;;;;5092661;28;20028;-63
2022/03/23 01:44:53;;;;;;;14.15;6.80;;;-0.80;99.90;;;;;;5093937;28;20024;-62
2022/03/23 01:47:19;;;;;;;13.38;6.63;;;-0.80;99.90;;;;;;5094322;28;20103;-62
2022/03/23 01:49:52;;;;;;;21.70;7.35;;;-0.90;99.90;;;;;;5093599;28;20028;-61
2022/03/23 01:52:38;;;;;;;21.88;7.55;;;-0.90;99.90;;;;;;5092632;28;20357;-62
2022/03/23 01:55:11;;;;;;;15.63;7.53;;;-0.90;99.90;;;;;;5095741;28;20023;-62
2022/03/23 01:57:39;;;;;;;16.92;8.25;;;1.50;99.90;;;;;;5097965;28;20023;-62
2022/03/23 02:00:07;;;;;;;13.82;7.32;;;-1.00;99.90;;;;;;5098067;28;20174;-62
2022/03/23 02:02:32;;;;;;;16.30;7.53;;;-0.90;99.90;;;;;;5096554;28;20406;-62
2022/03/23 02:04:58;;;;;;;11.00;6.35;;;-0.90;99.90;;;;;;5096533;28;20031;-62
2022/03/23 02:07:24;;;;;;;13.90;6.60;;;1.20;99.90;;;;;;5096413;28;20042;-62
2022/03/23 02:09:50;;;;;;;13.20;6.05;;;-1.00;99.90;;;;;;5096465;28;20114;-62
2022/03/23 02:12:16;;;;;;;17.50;6.15;;;-1.00;99.90;;;;;;5096476;28;20075;-62
2022/03/23 02:14:42;;;;;;;15.38;6.40;;;-0.60;99.90;;;;;;5096466;28;20070;-61
2022/03/23 02:17:08;;;;;;;15.75;7.15;;;-1.00;99.90;;;;;;5097802;28;20024;-62
2022/03/23 02:19:35;;;;;;;15.95;6.45;;;-1.00;99.90;;;;;;5096217;28;20124;-62
2022/03/23 02:22:02;;;;;;;12.18;5.68;;;-1.00;99.90;;;;;;5097428;28;20059;-62
2022/03/23 02:24:30;;;;;;;21.05;7.10;;;-0.30;99.90;;;;;;5097972;28;20115;-62
2022/03/23 02:26:57;;;;;;;16.08;6.32;;;-1.00;99.90;;;;;;5097065;28;20429;-62
2022/03/23 02:29:24;;;;;;;15.13;6.97;;;-1.00;99.90;;;;;;5097610;28;20028;-62
2022/03/23 02:31:50;;;;;;;11.85;6.07;;;-0.60;99.90;;;;;;5095930;28;20035;-62
2022/03/23 02:34:17;;;;;;;11.90;6.53;;;1.10;99.90;;;;;;5097195;28;20028;-62
2022/03/23 02:36:43;;;;;;;20.80;7.03;;;-0.60;99.90;;;;;;5097189;28;20021;-62
2022/03/23 02:39:08;;;;;;;14.35;6.63;;;-1.00;99.90;;;;;;5097311;28;20039;-62
2022/03/23 02:41:34;;;;;;;13.35;6.07;;;-1.00;99.90;;;;;;5096741;28;20028;-62
2022/03/23 02:44:00;;;;;;;19.38;7.18;;;-1.10;99.90;;;;;;5097009;28;20024;-62
2022/03/23 02:46:28;;;;;;;13.93;6.38;;;-1.10;99.90;;;;;;5095410;28;20031;-62
2022/03/23 02:48:54;;;;;;;13.70;6.72;;;0.70;99.90;;;;;;5096961;28;20058;-62
2022/03/23 02:51:20;;;;;;;17.88;7.05;;;1.40;99.90;;;;;;5096759;28;20028;-62
2022/03/23 03:02:35;;;;;;;15.18;6.60;;;-1.20;99.90;;;;;;5096555;28;20043;-62
2022/03/23 03:05:01;;;;;;;14.90;6.28;;;-1.20;99.90;;;;;;5096416;28;20479;-62
2022/03/23 03:07:27;;;;;;;12.18;6.25;;;-0.60;99.90;;;;;;5095035;28;20039;-62
2022/03/23 03:09:52;;;;;;;17.73;7.10;;;-0.10;99.90;;;;;;5096512;28;20024;-62
2022/03/23 03:12:18;;;;;;;16.08;6.22;;;-1.30;99.90;;;;;;5096014;28;20060;-62
2022/03/23 03:14:44;;;;;;;15.15;6.53;;;-1.30;99.90;;;;;;5096438;28;20461;-62
2022/03/23 03:17:10;;;;;;;16.10;6.45;;;-1.30;99.90;;;;;;5096910;28;20031;-62
2022/03/23 03:19:36;;;;;;;11.23;6.32;;;-1.30;99.90;;;;;;5096368;28;20028;-62
2022/03/23 03:22:02;;;;;;;14.40;6.20;;;0.60;99.90;;;;;;5095014;28;20031;-62
2022/03/23 03:24:28;;;;;;;15.32;7.25;;;-1.30;99.90;;;;;;5096252;28;20028;-62
2022/03/23 03:26:57;;;;;;;13.20;6.78;;;-1.10;99.90;;;;;;5096025;28;20074;-62
2022/03/23 03:29:23;;;;;;;12.95;6.10;;;-1.40;99.90;;;;;;5096183;28;20020;-62
2022/03/23 03:31:50;;;;;;;17.92;5.30;;;-1.40;99.90;;;;;;5096379;28;20038;-62
2022/03/23 03:34:15;;;;;;;15.38;6.15;;;-1.40;99.90;;;;;;5094806;28;20036;-62
2022/03/23 03:36:41;;;;;;;10.98;5.20;;;-0.20;99.90;;;;;;5095863;28;20024;-62
2022/03/23 03:39:07;;;;;;;12.70;6.82;;;-1.30;99.90;;;;;;5095895;28;20062;-62
2022/03/23 03:41:34;;;;;;;13.63;6.10;;;-1.40;99.90;;;;;;5111689;28;20032;-62
2022/03/23 03:44:00;;;;;;;18.63;7.28;;;-1.40;99.90;;;;;;5094620;28;20028;-62
2022/03/23 03:46:26;;;;;;;12.98;6.07;;;-1.40;99.90;;;;;;5095862;28;20408;-62
2022/03/23 03:48:52;;;;;;;11.77;5.38;;;-0.70;99.90;;;;;;5096007;28;20456;-62
2022/03/23 03:51:18;;;;;;;15.27;6.00;;;0.40;99.90;;;;;;5095762;28;20028;-62
2022/03/23 03:53:43;;;;;;;12.30;6.00;;;-1.00;99.90;;;;;;5094472;28;20034;-62
2022/03/23 03:56:10;;;;;;;15.07;6.32;;;-1.40;99.90;;;;;;5095670;28;20031;-62
2022/03/23 03:58:36;;;;;;;12.73;6.07;;;-1.40;99.90;;;;;;5095601;28;20024;-62
2022/03/23 04:01:02;;;;;;;23.35;6.55;;;-1.40;99.90;;;;;;5094281;28;20028;-62
2022/03/23 04:03:28;;;;;;;14.10;7.00;;;-1.40;99.90;;;;;;5095461;28;20024;-62
2022/03/23 04:05:54;;;;;;;15.60;6.50;;;-0.60;99.90;;;;;;5094392;28;20075;-62
2022/03/23 04:08:20;;;;;;;13.73;6.18;;;-1.50;99.90;;;;;;5093830;28;20065;-62
2022/03/23 04:10:46;;;;;;;16.88;6.78;;;-1.50;99.90;;;;;;5095320;28;20024;-62
2022/03/23 04:13:11;;;;;;;11.55;5.72;;;-1.50;99.90;;;;;;5095902;28;20135;-62
2022/03/23 04:15:37;;;;;;;12.15;6.40;;;-1.10;99.90;;;;;;5095135;28;20380;-62
2022/03/23 04:18:03;;;;;;;14.05;6.47;;;-1.60;99.90;;;;;;5094940;28;20024;-62
2022/03/23 04:20:29;;;;;;;13.90;6.65;;;-1.60;99.90;;;;;;5094881;28;20035;-62
2022/03/23 04:22:55;;;;;;;13.93;5.82;;;-1.60;99.90;;;;;;5095006;28;20471;-62
2022/03/23 04:25:21;;;;;;;21.35;6.70;;;-0.40;99.90;;;;;;5094760;28;20032;-62
2022/03/23 04:27:50;;;;;;;15.45;6.80;;;-1.40;99.90;;;;;;5095304;28;20036;-62
2022/03/23 04:30:19;;;;;;;15.35;6.32;;;-1.60;99.90;;;;;;5094974;28;20031;-62
2022/03/23 04:32:46;;;;;;;14.25;6.53;;;-1.60;99.90;;;;;;5095206;28;20028;-62
2022/03/23 04:35:12;;;;;;;13.45;5.93;;;0.20;99.90;;;;;;5094845;28;20050;-62
2022/03/23 04:37:39;;;;;;;25.88;7.05;;;-1.60;99.90;;;;;;5094882;28;20028;-62
2022/03/23 04:40:05;;;;;;;13.57;6.28;;;-1.70;99.90;;;;;;5094522;28;20024;-62
2022/03/23 04:42:31;;;;;;;12.75;6.00;;;-1.70;99.90;;;;;;5093472;28;20419;-62
2022/03/23 04:44:57;;;;;;;13.77;5.60;;;0.40;99.90;;;;;;5093628;28;20115;-62
2022/03/23 04:47:23;;;;;;;20.33;6.65;;;-1.70;99.90;;;;;;5093404;28;20471;-62
2022/03/23 04:49:48;;;;;;;22.45;6.55;;;-1.70;99.90;;;;;;5094836;28;20056;-62
2022/03/23 04:52:16;;;;;;;14.52;6.43;;;0.50;99.90;;;;;;5094234;28;20127;-62
2022/03/23 04:54:43;;;;;;;11.90;6.07;;;-1.70;99.90;;;;;;5094563;28;20110;-62
2022/03/23 04:57:09;;;;;;;15.20;6.22;;;-1.70;99.90;;;;;;5094487;28;20105;-62
2022/03/23 04:59:34;;;;;;;11.43;6.13;;;-1.70;99.90;;;;;;5093127;28;20464;-62
2022/03/23 05:02:00;;;;;;;17.48;6.35;;;-1.70;99.90;;;;;;5094339;28;20049;-62
2022/03/23 05:04:26;;;;;;;11.57;6.20;;;-1.70;99.90;;;;;;5094381;28;20028;-61
2022/03/23 05:06:51;;;;;;;11.07;6.65;;;-1.70;99.90;;;;;;5093147;28;20411;-62
2022/03/23 05:09:17;;;;;;;15.82;6.10;;;-1.00;99.90;;;;;;5094292;28;20047;-62
2022/03/23 05:11:42;;;;;;;11.35;6.03;;;-1.70;99.90;;;;;;5093677;28;20059;-62
2022/03/23 05:14:08;;;;;;;13.07;6.10;;;-0.10;99.90;;;;;;5092932;28;20031;-62
2022/03/23 05:16:34;;;;;;;15.73;6.38;;;-1.70;99.90;;;;;;5094123;28;20024;-64
2022/03/23 05:18:59;;;;;;;17.42;7.10;;;-1.70;99.90;;;;;;5094473;28;20032;-62
2022/03/23 05:21:25;;;;;;;13.63;6.18;;;-1.60;99.90;;;;;;5094117;28;20455;-62
2022/03/23 05:23:51;;;;;;;14.63;6.38;;;-1.10;99.90;;;;;;5093019;28;20024;-62
2022/03/23 05:26:17;;;;;;;13.68;6.60;;;-0.80;99.90;;;;;;5095358;28;20039;-62
2022/03/23 05:28:43;;;;;;;14.88;6.28;;;-1.00;99.90;;;;;;5093788;28;20024;-62
2022/03/23 05:31:09;;;;;;;16.92;5.70;;;-1.10;99.90;;;;;;5095048;28;20043;-63
2022/03/23 05:33:36;;;;;;;22.38;6.38;;;-1.50;99.90;;;;;;5094460;28;20020;-62
2022/03/23 05:36:02;;;;;;;15.98;6.20;;;-1.50;99.90;;;;;;5092657;28;20028;-63
2022/03/23 05:38:28;;;;;;;12.90;6.00;;;-1.40;99.90;;;;;;5092664;28;20028;-63
2022/03/23 05:40:53;;;;;;;16.13;7.55;;;-1.20;99.90;;;;;;5094245;28;20038;-63
2022/03/23 05:43:19;;;;;;;13.18;6.60;;;-1.40;99.90;;;;;;5092610;28;20464;-63
2022/03/23 05:45:45;;;;;;;12.07;5.97;;;0.60;99.90;;;;;;5093902;28;20110;-63
2022/03/23 05:48:29;;;;;;;11.35;6.35;;;-1.30;99.90;;;;;;5094044;28;20032;-63
2022/03/23 05:50:55;;;;;;;19.35;6.93;;;-1.20;99.90;;;;;;5093965;28;20052;-63
2022/03/23 05:53:21;;;;;;;12.82;6.45;;;0.30;99.90;;;;;;5094295;28;20112;-62
2022/03/23 05:55:46;;;;;;;13.52;6.65;;;-1.00;99.90;;;;;;5093897;28;20103;-62
2022/03/23 05:58:12;;;;;;;23.83;6.28;;;-0.80;99.90;;;;;;5093830;28;20020;-65
2022/03/23 06:00:56;;;;;;;15.50;6.40;;;-0.50;99.90;;;;;;5092515;28;20024;-63
2022/03/23 06:03:22;;;;;;;20.35;6.93;;;-0.20;99.90;;;;;;5093643;28;20425;-63
2022/03/23 06:05:47;;;;;;;17.25;6.80;;;0.30;99.90;;;;;;5092359;28;20024;-62
2022/03/23 06:08:13;;;;;;;16.83;7.07;;;0.60;99.90;;;;;;5092509;28;20028;-63
2022/03/23 06:10:39;;;;;;;16.35;6.97;;;1.00;99.90;;;;;;5093565;28;20028;-62
2022/03/23 06:13:04;;;;;;;18.95;8.20;;;1.30;99.90;;;;;;5091985;28;20048;-63
2022/03/23 06:15:30;;;;;;;13.88;7.10;;;1.70;99.90;;;;;;5093831;28;20020;-63
2022/03/23 06:17:55;;;;;;;15.38;6.20;;;2.00;99.90;;;;;;5094065;28;20027;-63
2022/03/23 06:20:21;;;;;;;12.98;6.57;;;2.40;99.90;;;;;;5092309;28;20096;-62
2022/03/23 06:22:47;;;;;;;16.30;6.63;;;2.80;99.90;;;;;;5093584;28;20028;-63
2022/03/23 06:25:12;;;;;;;20.30;7.40;;;3.10;99.90;;;;;;5093301;28;20440;-63
2022/03/23 06:27:38;;;;;;;18.95;6.97;;;3.30;99.90;;;;;;5093427;28;20522;-63
2022/03/23 06:30:05;;;;;;;20.05;7.28;;;3.70;99.90;;;;;;5093512;28;20035;-63
2022/03/23 06:32:33;;;;;;;11.10;6.60;;;4.10;99.90;;;;;;5093625;28;20474;-63
2022/03/23 06:35:00;;;;;;;14.55;6.95;;;4.50;99.80;;;;;;5093398;28;20047;-63
2022/03/23 06:37:26;;;;;;;14.35;7.18;;;4.80;99.30;;;;;;5093540;28;20497;-63
2022/03/23 06:39:52;;;;;;;17.23;7.78;;;5.20;97.90;;;;;;5092190;28;20024;-63
2022/03/23 06:42:18;;;;;;;13.98;6.32;;;5.40;96.90;;;;;;5096609;28;20569;-63
2022/03/23 06:44:44;;;;;;;16.60;6.28;;;5.70;96.20;;;;;;5096618;28;20031;-63
2022/03/23 06:47:09;;;;;;;18.27;7.50;;;6.00;95.00;;;;;;5096858;28;20456;-63
2022/03/23 06:49:35;;;;;;;11.23;7.07;;;6.30;93.90;;;;;;5096759;28;20020;-63
2022/03/23 06:52:01;;;;;;;16.77;6.88;;;6.40;93.10;;;;;;5096927;28;20032;-63
2022/03/23 06:54:26;;;;;;;15.80;6.72;;;6.70;92.60;;;;;;5096722;28;20032;-63
2022/03/23 06:56:52;;;;;;;12.60;6.57;;;6.90;91.00;;;;;;5095657;28;20463;-63
2022/03/23 06:59:19;;;;;;;13.35;7.50;;;7.10;88.30;;;;;;5095532;28;20387;-62
2022/03/23 07:01:44;;;;;;;12.38;7.18;;;7.20;86.20;;;;;;5095437;28;20086;-63
2022/03/23 07:04:10;;;;;;;23.30;7.18;;;7.30;84.00;;;;;;5096224;28;20451;-63
2022/03/23 07:06:36;;;;;;;18.98;8.00;;;7.70;82.50;;;;;;5095351;28;20067;-63
2022/03/23 07:11:45;;;;;;;13.00;7.55;;;8.40;71.50;;;;;;5096466;28;20124;-63
2022/03/23 07:14:11;;;;;;;20.48;8.10;;;8.70;70.20;;;;;;5096989;28;20447;-62
2022/03/23 07:16:36;;;;;;;14.70;7.85;;;8.80;67.30;;;;;;5096138;28;20024;-62
2022/03/23 07:19:02;;;;;;;21.05;8.88;;;9.00;66.50;;;;;;5094984;28;20032;-63
2022/03/23 07:21:28;;;;;;;14.45;7.65;;;9.30;64.70;;;;;;5095981;28;20066;-63
2022/03/23 07:23:53;;;;;;;18.40;8.38;;;9.80;62.60;;;;;;5096144;28;20019;-63
2022/03/23 07:26:21;;;;;;;26.17;9.32;;;10.20;56.80;;;;;;5095930;28;20063;-63
2022/03/23 07:28:47;;;;;;;18.38;8.25;;;10.60;54.70;;;;;;5096154;28;20373;-63
2022/03/23 07:31:13;;;;;;;21.17;8.63;;;11.10;54.60;;;;;;5094758;28;20028;-63
2022/03/23 07:33:38;;;;;;;19.25;8.70;;;11.40;52.20;;;;;;5095975;28;20020;-64
2022/03/23 07:36:04;;;;;;;20.63;9.20;;;11.80;50.40;;;;;;5094698;28;20078;-62
2022/03/23 07:38:30;;;;;;;16.83;9.80;;;12.20;50.60;;;;;;5095922;28;20517;-61
2022/03/23 07:40:56;;;;;;;28.45;10.38;;;12.60;48.10;;;;;;5095928;28;20036;-61
2022/03/23 07:43:21;;;;;;;17.17;9.32;;;12.90;47.30;;;;;;5095817;28;20052;-61
2022/03/23 07:45:48;;;;;;;19.38;10.23;;;13.30;46.00;;;;;;5096119;28;20459;-61
2022/03/23 07:48:15;;;;;;;18.30;9.98;;;13.50;45.40;;;;;;5095768;28;20066;-61
2022/03/23 07:50:41;;;;;;;21.15;9.90;;;13.80;43.90;;;;;;5095541;28;20024;-62
2022/03/23 07:53:06;;;;;;;14.18;9.05;;;14.10;43.20;;;;;;5095139;28;20381;-60
2022/03/23 07:55:32;;;;;;;12.85;8.63;;;14.40;41.70;;;;;;5094393;28;20043;-62
2022/03/23 07:57:58;;;;;;;13.30;8.90;;;14.80;40.20;;;;;;5094309;28;20479;-60
2022/03/23 08:00:23;;;;;;;17.10;9.02;;;15.30;39.00;;;;;;5095462;28;20375;-60
2022/03/23 08:02:50;;;;;;;14.63;8.38;;;15.60;36.90;;;;;;5094194;28;20047;-59
2022/03/23 08:05:16;;;;;;;15.32;8.70;;;15.90;36.10;;;;;;5095504;28;20157;-61
2022/03/23 08:07:41;;;;;;;14.68;8.48;;;16.10;34.60;;;;;;5093976;28;20066;-61
2022/03/23 08:10:07;;;;;;;13.05;8.63;;;16.40;34.10;;;;;;5094049;28;20024;-59
2022/03/23 08:12:35;;;;;;;14.63;9.05;;;16.60;32.80;;;;;;5093445;28;20051;-61
2022/03/23 08:15:00;;;;;;;14.02;8.45;;;16.80;32.60;;;;;;5095122;28;20028;-61
2022/03/23 08:17:26;;;;;;;15.02;8.30;;;17.00;31.90;;;;;;5095141;28;20505;-61
2022/03/23 08:22:36;;;;;;;13.20;9.30;;;17.60;31.00;;;;;;5095181;28;20532;-62
2022/03/23 08:25:02;;;;;;;16.83;9.90;;;17.70;31.00;;;;;;5093837;28;20056;-63
2022/03/23 08:27:27;;;;;;;15.77;10.35;;;17.90;30.90;;;;;;5094672;28;20039;-63
2022/03/23 08:29:53;;;;;;;14.52;9.70;;;18.10;30.20;;;;;;5095099;28;20039;-61
2022/03/23 08:32:18;;;;;;;15.10;10.00;;;18.40;30.50;;;;;;5093895;28;20028;-63
2022/03/23 08:35:03;;;;;;;23.40;10.88;;;18.70;30.30;;;;;;5093504;28;20039;-63
2022/03/23 08:37:29;;;;;;;14.40;9.75;;;18.80;30.00;;;;;;5094538;28;20020;-63
2022/03/23 08:39:55;;;;;;;14.70;10.02;;;19.10;29.60;;;;;;5094734;28;20020;-63
2022/03/23 08:42:21;;;;;;;13.20;9.73;;;19.00;29.50;;;;;;5094943;28;20032;-62
2022/03/23 08:44:47;;;;;;;15.93;9.82;;;18.80;29.50;;;;;;5094690;28;20475;-63
2022/03/23 08:47:13;;;;;;;13.20;9.95;;;18.80;29.60;;;;;;5093618;28;20372;-61
2022/03/23 08:49:39;;;;;;;16.83;11.07;;;18.70;29.20;;;;;;5094504;28;20475;-61
2022/03/23 08:52:05;;;;;;;21.58;10.73;;;18.50;29.90;;;;;;5110363;28;20036;-61
2022/03/23 08:54:31;;;;;;;17.38;10.07;;;18.70;29.60;;;;;;5093171;28;20028;-60
2022/03/23 08:56:56;;;;;;;17.55;11.15;;;18.50;29.00;;;;;;5094737;28;20031;-62
2022/03/23 08:59:22;;;;;;;17.60;10.55;;;18.90;29.90;;;;;;5094409;28;20020;-63
2022/03/23 09:01:48;;;;;;;15.88;10.10;;;19.40;29.30;;;;;;5094115;28;20024;-63
2022/03/23 09:04:15;;;;;;;23.33;12.00;;;19.60;29.10;;;;;;5093408;28;20024;-63
2022/03/23 09:06:40;;;;;;;15.52;10.55;;;20.10;28.60;;;;;;5094068;28;20024;-63
2022/03/23 09:09:06;;;;;;;12.70;10.02;;;20.30;28.80;;;;;;5092994;28;20030;-62
2022/03/23 09:11:32;;;;;;;13.90;9.27;;;20.10;28.00;;;;;;5094057;28;20472;-62
2022/03/23 09:13:58;;;;;;;17.55;10.30;;;20.20;28.20;;;;;;5094245;28;20024;-62
2022/03/23 09:16:24;;;;;;;15.48;10.90;;;20.60;28.30;;;;;;5092910;28;20066;-63
2022/03/23 09:18:50;;;;;;;17.73;11.50;;;21.30;27.80;;;;;;5094118;28;20475;-62
2022/03/23 09:21:16;;;;;;;14.90;10.50;;;21.40;27.70;;;;;;5093757;28;20114;-63
2022/03/23 09:23:43;;;;;;;13.77;10.73;;;21.80;27.20;;;;;;5092779;28;20081;-63
2022/03/23 09:26:10;;;;;;;16.23;11.30;;;21.50;27.00;;;;;;5094068;28;20047;-63
2022/03/23 09:28:36;;;;;;;14.88;11.13;;;21.80;27.20;;;;;;5092797;28;20360;-63
2022/03/23 09:31:01;;;;;;;13.15;10.20;;;21.90;27.00;;;;;;5092629;28;20081;-62
2022/03/23 09:33:30;;;;;;;16.55;10.80;;;21.00;26.80;;;;;;5093920;28;20388;-64
2022/03/23 09:35:57;;;;;;;12.98;10.15;;;21.10;27.40;;;;;;5094346;28;20028;-64
2022/03/23 09:38:22;;;;;;;14.18;9.82;;;21.50;27.20;;;;;;5092524;28;20028;-64
2022/03/23 09:40:52;;;;;;;16.95;10.20;;;21.90;26.60;;;;;;5093856;28;20345;-63
2022/03/23 09:43:23;;;;;;;15.25;10.80;;;22.20;26.60;;;;;;5093518;28;20016;-64
2022/03/23 09:45:50;;;;;;;13.25;10.18;;;23.00;25.90;;;;;;5094045;28;20020;-64
2022/03/23 09:48:20;;;;;;;13.80;9.07;;;22.70;25.60;;;;;;5092947;28;20107;-64
2022/03/23 09:50:52;;;;;;;13.40;9.70;;;23.10;25.80;;;;;;5092444;28;20024;-64
2022/03/23 09:53:19;;;;;;;13.18;9.57;;;23.50;25.30;;;;;;5092583;28;20398;-64
2022/03/23 09:55:46;;;;;;;12.52;9.13;;;24.00;25.50;;;;;;5093723;28;20024;-63
2022/03/23 09:58:12;;;;;;;12.57;9.15;;;23.70;25.10;;;;;;5093664;28;20059;-64
2022/03/23 10:00:41;;;;;;;10.73;8.40;;;23.50;25.20;;;;;;5092762;28;20337;-64
2022/03/23 10:03:09;;;;;;;11.02;8.82;;;23.70;24.80;;;;;;5093360;28;20403;-64
2022/03/23 10:06:05;;;;;;;11.20;9.05;;;23.90;24.80;;;;;;5093561;28;20032;-64
2022/03/23 10:09:08;;;;;;;12.00;8.85;;;24.50;24.70;;;;;;5093784;28;20021;-64
2022/03/23 10:12:04;;;;;;;13.68;8.98;;;24.70;24.50;;;;;;5093196;28;20062;-64
2022/03/23 10:15:06;;;;;;;9.85;8.85;;;24.60;24.50;;;;;;5092217;28;20042;-63
2022/03/23 10:17:42;;;;;;;10.27;8.93;;;24.80;24.20;;;;;;5097787;28;20073;-63
2022/03/23 10:20:10;;;;;;;13.75;9.65;;;25.00;24.10;;;;;;5095755;28;20024;-64
2022/03/23 10:22:43;;;;;;;16.25;8.82;;;25.20;24.30;;;;;;5097058;28;20411;-64
2022/03/23 10:25:10;;;;;;;12.32;8.82;;;25.40;24.30;;;;;;5097115;28;20456;-64
2022/03/23 10:27:35;;;;;;;16.60;9.30;;;25.20;24.00;;;;;;5096006;28;20101;-63
2022/03/23 10:30:08;;;;;;;12.57;9.98;;;24.60;24.40;;;;;;5095900;28;20028;-64
2022/03/23 10:32:38;;;;;;;14.50;9.73;;;24.70;24.40;;;;;;5095869;28;20032;-64
2022/03/23 10:35:09;;;;;;;17.92;10.10;;;25.00;24.40;;;;;;5095592;28;20036;-64
2022/03/23 10:37:35;;;;;;;13.65;9.20;;;25.10;24.40;;;;;;5097002;28;20460;-64
2022/03/23 10:40:07;;;;;;;14.02;9.98;;;25.00;24.20;;;;;;5095658;28;20035;-64
2022/03/23 10:42:35;;;;;;;16.05;9.13;;;24.90;24.20;;;;;;5096445;28;20440;-64
2022/03/23 10:45:06;;;;;;;17.85;9.52;;;25.10;24.10;;;;;;5096872;28;20020;-65
2022/03/23 10:47:32;;;;;;;13.18;9.60;;;24.90;24.60;;;;;;5097081;28;20031;-63
2022/03/23 10:50:26;;;;;;;11.13;9.00;;;25.00;24.40;;;;;;5096840;28;20024;-64
2022/03/23 10:52:57;;;;;;;13.75;9.63;;;24.50;24.20;;;;;;5095315;28;20040;-62
2022/03/23 10:55:25;;;;;;;13.75;9.27;;;24.70;24.40;;;;;;5096386;28;20028;-63
2022/03/23 10:57:51;;;;;;;14.93;9.50;;;25.00;24.40;;;;;;5096755;28;20024;-62
2022/03/23 11:00:25;;;;;;;15.40;10.35;;;25.30;24.10;;;;;;5095444;28;20020;-63
2022/03/23 11:02:51;;;;;;;12.25;9.00;;;24.40;24.00;;;;;;5095434;28;20143;-61
2022/03/23 11:05:36;;;;;;;13.52;9.32;;;24.60;24.50;;;;;;5095337;28;20514;-63
2022/03/23 11:08:14;;;;;;;15.10;9.60;;;25.30;24.20;;;;;;5096634;28;20111;-63
2022/03/23 11:16:31;;;;;;;13.38;9.30;;;26.30;23.40;;;;;;5096196;28;20036;-63
2022/03/23 11:18:57;;;;;;;13.30;8.40;;;25.40;23.20;;;;;;5095154;28;20020;-63
2022/03/23 11:21:24;;;;;;;11.20;8.50;;;25.90;23.80;;;;;;5096152;28;20024;-63
2022/03/23 11:23:50;;;;;;;13.05;9.23;;;26.00;23.60;;;;;;5095979;28;20111;-63
2022/03/23 11:26:16;;;;;;;12.32;8.88;;;26.20;24.20;;;;;;5096139;28;20125;-63
2022/03/23 11:28:45;;;;;;;13.95;8.48;;;26.70;23.50;;;;;;5095066;28;20028;-63
2022/03/23 11:31:13;;;;;;;12.52;9.18;;;27.20;23.00;;;;;;5095987;28;20028;-63
2022/03/23 11:33:39;;;;;;;15.50;8.70;;;27.50;23.10;;;;;;5094781;28;20119;-63
2022/03/23 11:36:11;;;;;;;9.73;8.25;;;26.30;23.20;;;;;;5095636;28;20437;-63
2022/03/23 11:38:38;;;;;;;11.18;8.15;;;26.30;22.50;;;;;;5095802;28;20028;-63
2022/03/23 11:41:06;;;;;;;8.80;7.93;;;26.90;22.70;;;;;;5094565;28;20093;-64
2022/03/23 11:43:37;;;;;;;10.15;8.30;;;27.80;22.40;;;;;;5094316;28;20020;-63
2022/03/23 11:46:04;;;;;;;10.55;8.18;;;26.90;22.50;;;;;;5095976;28;20027;-63
2022/03/23 11:48:47;;;;;;;10.45;8.02;;;26.70;22.80;;;;;;5095729;28;20460;-63
2022/03/23 11:52:05;;;;;;;9.73;8.60;;;27.10;22.80;;;;;;5094869;28;20028;-64
2022/03/23 11:55:37;;;;;;;9.25;8.23;;;28.20;22.70;;;;;;5085104;28;20445;-63
2022/03/23 11:57:20;;;;;;;;;;;27.50;22.40;;;;;;5095576;28;20028;-64
2022/03/23 11:59:45;;;;;;;11.30;9.25;;;28.10;22.50;;;;;;5095820;28;19904;-63
2022/03/23 12:02:12;;;;;;;12.65;9.35;;;28.00;22.50;;;;;;5094766;28;20036;-63
2022/03/23 12:04:37;;;;;;;14.02;9.10;;;28.60;22.50;;;;;;5094315;28;20031;-64
2022/03/23 12:07:04;;;;;;;11.82;9.88;;;27.00;22.90;;;;;;5095459;28;20386;-63
2022/03/23 12:09:35;;;;;;;13.13;8.75;;;27.80;22.90;;;;;;5094064;28;20398;-63
2022/03/23 12:12:25;;;;;;;9.60;7.60;;;27.80;22.00;;;;;;5095315;28;20059;-63
2022/03/23 12:14:50;;;;;;;11.02;9.10;;;28.10;22.20;;;;;;5087359;28;20119;-63
2022/03/23 12:17:18;;;;;;;13.20;8.88;;;28.00;22.50;;;;;;5094893;28;20062;-64
2022/03/23 12:20:10;;;;;;;12.02;8.65;;;28.50;22.40;;;;;;5094353;28;20080;-63
2022/03/23 12:22:49;;;;;;;10.20;9.05;;;29.00;22.10;;;;;;5103094;28;20036;-63
2022/03/23 12:25:33;;;;;;;10.23;8.88;;;29.50;22.10;;;;;;5094088;28;20027;-63
2022/03/23 12:28:18;;;;;;;14.05;8.43;;;29.60;21.90;;;;;;5094976;28;20488;-63
2022/03/23 12:31:01;;;;;;;12.02;8.60;;;29.30;21.80;;;;;;5093766;28;20050;-63
2022/03/23 12:33:31;;;;;;;13.45;8.10;;;29.70;21.90;;;;;;5093634;28;20497;-64
2022/03/23 12:36:04;;;;;;;9.55;7.57;;;28.10;21.60;;;;;;5095190;28;20032;-64
2022/03/23 12:38:30;;;;;;;11.55;8.10;;;28.70;21.90;;;;;;5094388;28;20442;-63
2022/03/23 12:41:04;;;;;;;8.45;7.65;;;28.60;21.80;;;;;;5094658;28;20036;-63
2022/03/23 12:43:46;;;;;;;8.55;7.22;;;28.70;21.90;;;;;;5094905;28;20020;-64
2022/03/23 12:46:23;;;;;;;12.50;7.88;;;28.60;21.20;;;;;;5094705;28;20067;-64
2022/03/23 13:00:25;;;;;;;9.68;7.55;;;27.30;22.40;;;;;;5094509;28;20069;-63
2022/03/23 13:03:05;;;;;;;11.27;7.65;;;26.90;21.70;;;;;;5094429;28;20430;-63
2022/03/23 13:05:35;;;;;;;18.40;8.00;;;27.30;21.80;;;;;;5094145;28;20049;-64
2022/03/23 13:08:21;;;;;;;9.13;6.53;;;28.20;21.60;;;;;;5094558;28;20032;-63
2022/03/23 13:10:59;;;;;;;9.80;6.50;;;27.50;20.70;;;;;;5094050;28;20040;-63
2022/03/23 13:13:26;;;;;;;10.13;7.40;;;26.60;21.30;;;;;;5093106;28;20048;-63